createdAt,value
2022-10-23T00:01:26.674Z,12.10
2022-10-23T00:03:56.626Z,11.91
2022-10-23T00:06:24.471Z,12.07
2022-10-23T00:08:51.480Z,12.08
2022-10-23T00:11:21.361Z,12.05
2022-10-23T00:13:48.634Z,11.99
2022-10-23T00:16:16.265Z,11.94
2022-10-23T00:18:42.997Z,11.93
2022-10-23T00:21:11.778Z,11.86
2022-10-23T00:23:38.613Z,11.80
2022-10-23T00:26:05.599Z,11.99
2022-10-23T00:28:32.277Z,12.01
2022-10-23T00:31:02.240Z,11.83
2022-10-23T00:33:29.231Z,11.72
2022-10-23T00:35:55.910Z,11.67
2022-10-23T00:38:23.125Z,11.75
2022-10-23T00:43:25.820Z,11.98
2022-10-23T00:45:52.858Z,11.99
2022-10-23T00:48:20.259Z,11.99
2022-10-23T00:50:48.288Z,11.84
2022-10-23T00:53:17.006Z,11.88
2022-10-23T00:55:47.408Z,11.88
2022-10-23T00:58:15.407Z,11.99
2022-10-23T01:00:46.946Z,11.93
2022-10-23T01:03:16.666Z,11.75
2022-10-23T01:05:53.948Z,11.59
2022-10-23T01:08:29.999Z,11.38
2022-10-23T01:11:28.945Z,11.46
2022-10-23T01:17:00.394Z,11.29
2022-10-23T01:19:51.327Z,11.18
2022-10-23T01:22:38.539Z,11.16
2022-10-23T01:25:20.381Z,10.98
2022-10-23T01:27:53.047Z,10.84
2022-10-23T01:30:19.937Z,10.93
2022-10-23T01:32:57.366Z,11.03
2022-10-23T01:35:52.121Z,11.04
2022-10-23T01:38:31.281Z,11.13
2022-10-23T01:41:11.414Z,11.13
2022-10-23T01:43:56.645Z,11.22
2022-10-23T01:46:25.263Z,11.03
2022-10-23T01:48:57.858Z,11.12
2022-10-23T01:51:27.509Z,11.17
2022-10-23T01:53:58.401Z,11.31
2022-10-23T01:56:35.748Z,10.99
2022-10-23T01:59:08.750Z,11.10
2022-10-23T02:01:39.652Z,11.35
2022-10-23T02:04:10.543Z,11.38
2022-10-23T02:06:37.273Z,11.34
2022-10-23T02:09:06.449Z,11.10
2022-10-23T02:11:39.834Z,11.23
2022-10-23T02:14:17.752Z,11.16
2022-10-23T02:16:52.118Z,11.12
2022-10-23T02:19:50.589Z,11.24
2022-10-23T02:22:23.242Z,11.19
2022-10-23T02:25:12.851Z,11.12
2022-10-23T02:27:47.362Z,10.97
2022-10-23T02:30:16.933Z,11.13
2022-10-23T02:32:50.586Z,11.11
2022-10-23T02:35:19.217Z,11.14
2022-10-23T02:37:56.219Z,11.31
2022-10-23T02:40:26.673Z,11.10
2022-10-23T02:43:17.597Z,11.03
2022-10-23T02:46:00.339Z,11.19
2022-10-23T02:48:39.230Z,11.25
2022-10-23T02:51:15.034Z,11.18
2022-10-23T02:54:01.340Z,11.13
2022-10-23T02:56:36.696Z,11.08
2022-10-23T02:59:16.323Z,11.16
2022-10-23T03:01:53.523Z,11.21
2022-10-23T03:04:24.045Z,11.07
2022-10-23T03:06:51.872Z,11.12
2022-10-23T03:09:18.897Z,11.37
2022-10-23T03:11:45.784Z,11.33
2022-10-23T03:14:13.953Z,11.31
2022-10-23T03:16:40.762Z,11.29
2022-10-23T03:19:07.594Z,11.29
2022-10-23T03:21:34.357Z,11.24
2022-10-23T03:24:01.081Z,11.05
2022-10-23T03:26:27.862Z,11.22
2022-10-23T03:28:54.609Z,11.07
2022-10-23T03:31:21.413Z,11.13
2022-10-23T03:33:48.072Z,11.00
2022-10-23T03:36:14.788Z,10.99
2022-10-23T03:38:41.447Z,11.01
2022-10-23T03:41:08.199Z,10.94
2022-10-23T03:43:35.003Z,10.98
2022-10-23T03:46:02.307Z,10.88
2022-10-23T03:48:29.055Z,10.86
2022-10-23T03:50:55.816Z,10.84
2022-10-23T03:53:22.481Z,10.78
2022-10-23T03:55:49.237Z,10.83
2022-10-23T03:58:16.007Z,10.80
2022-10-23T04:03:14.409Z,10.80
2022-10-23T04:05:42.498Z,10.89
2022-10-23T04:08:09.995Z,10.85
2022-10-23T04:10:36.799Z,10.86
2022-10-23T04:13:03.523Z,10.79
2022-10-23T04:15:30.190Z,10.52
2022-10-23T04:17:56.905Z,10.44
2022-10-23T04:20:23.607Z,10.50
2022-10-23T04:22:50.337Z,10.63
2022-10-23T04:25:17.206Z,10.63
2022-10-23T04:27:44.105Z,10.76
2022-10-23T04:30:11.701Z,10.83
2022-10-23T04:32:38.423Z,10.70
2022-10-23T04:35:05.841Z,10.54
2022-10-23T04:37:32.545Z,10.40
2022-10-23T04:39:59.320Z,10.46
2022-10-23T04:44:52.729Z,10.45
2022-10-23T04:47:19.484Z,10.41
2022-10-23T04:49:46.125Z,10.53
2022-10-23T04:52:12.857Z,10.50
2022-10-23T04:54:40.192Z,10.42
2022-10-23T04:57:07.057Z,10.55
2022-10-23T04:59:33.973Z,10.51
2022-10-23T05:02:01.000Z,10.63
2022-10-23T05:04:27.740Z,10.70
2022-10-23T05:06:54.416Z,10.71
2022-10-23T05:09:22.374Z,10.82
2022-10-23T05:11:49.883Z,10.92
2022-10-23T05:14:20.620Z,10.93
2022-10-23T05:16:59.295Z,10.99
2022-10-23T05:19:29.969Z,11.05
2022-10-23T05:21:57.854Z,11.29
2022-10-23T05:24:25.851Z,11.42
2022-10-23T05:26:53.161Z,11.49
2022-10-23T05:29:20.577Z,11.62
2022-10-23T05:31:50.040Z,11.76
2022-10-23T05:34:21.009Z,11.84
2022-10-23T05:36:48.475Z,11.85
2022-10-23T05:39:16.127Z,11.73
2022-10-23T05:41:42.920Z,11.73
2022-10-23T05:44:09.781Z,11.74
2022-10-23T05:46:41.927Z,11.52
2022-10-23T05:49:08.863Z,11.46
2022-10-23T05:51:40.431Z,11.36
2022-10-23T05:54:08.415Z,11.51
2022-10-23T05:56:37.236Z,11.67
2022-10-23T05:59:04.620Z,12.05
2022-10-23T06:01:31.651Z,12.35
2022-10-23T06:04:00.055Z,12.43
2022-10-23T06:06:27.134Z,12.77
2022-10-23T06:08:54.947Z,13.31
2022-10-23T06:11:22.717Z,13.71
2022-10-23T06:13:49.580Z,14.17
2022-10-23T06:16:21.784Z,14.87
2022-10-23T06:18:48.679Z,14.98
2022-10-23T06:21:16.250Z,15.06
2022-10-23T06:23:44.806Z,15.09
2022-10-23T06:26:13.484Z,15.06
2022-10-23T06:28:40.519Z,15.33
2022-10-23T06:31:10.261Z,15.37
2022-10-23T06:33:37.336Z,15.40
2022-10-23T06:36:05.604Z,15.81
2022-10-23T06:38:37.543Z,15.77
2022-10-23T06:41:06.157Z,16.13
2022-10-23T06:43:32.864Z,16.36
2022-10-23T06:46:05.868Z,16.90
2022-10-23T06:48:33.082Z,16.92
2022-10-23T06:51:05.900Z,16.35
2022-10-23T06:53:33.152Z,16.15
2022-10-23T06:56:01.709Z,15.90
2022-10-23T06:58:29.100Z,16.21
2022-10-23T07:00:56.069Z,16.57
2022-10-23T07:03:22.835Z,16.75
2022-10-23T07:05:49.602Z,17.52
2022-10-23T07:08:16.670Z,18.12
2022-10-23T07:10:43.491Z,17.91
2022-10-23T07:13:11.519Z,17.51
2022-10-23T07:15:39.440Z,18.26
2022-10-23T07:18:06.709Z,18.89
2022-10-23T07:20:33.947Z,18.84
2022-10-23T07:23:00.681Z,18.83
2022-10-23T07:25:27.650Z,18.79
2022-10-23T07:27:57.660Z,19.33
2022-10-23T07:30:24.577Z,19.11
2022-10-23T07:32:51.492Z,19.01
2022-10-23T07:35:18.496Z,19.89
2022-10-23T07:37:45.695Z,20.41
2022-10-23T07:40:12.682Z,21.60
2022-10-23T07:42:39.455Z,20.73
2022-10-23T07:45:07.586Z,20.48
2022-10-23T07:47:34.536Z,20.63
2022-10-23T07:50:01.386Z,21.06
2022-10-23T07:52:31.991Z,20.65
2022-10-23T07:55:02.280Z,19.94
2022-10-23T07:57:29.031Z,20.04
2022-10-23T07:59:55.761Z,20.87
2022-10-23T08:02:22.620Z,21.18
2022-10-23T08:04:50.409Z,21.96
2022-10-23T08:07:17.230Z,22.75
2022-10-23T08:09:43.992Z,23.30
2022-10-23T08:12:10.880Z,23.65
2022-10-23T08:14:37.700Z,22.94
2022-10-23T08:17:05.557Z,23.11
2022-10-23T08:19:32.426Z,24.11
2022-10-23T08:21:59.382Z,23.99
2022-10-23T08:24:27.409Z,24.24
2022-10-23T08:26:54.111Z,24.13
2022-10-23T08:29:20.896Z,24.75
2022-10-23T08:31:47.876Z,25.67
2022-10-23T08:34:15.640Z,25.45
2022-10-23T08:36:42.369Z,26.26
2022-10-23T08:39:09.861Z,26.43
2022-10-23T08:41:47.984Z,26.82
2022-10-23T08:44:47.288Z,26.20
2022-10-23T08:47:21.320Z,26.06
2022-10-23T08:49:56.290Z,26.20
2022-10-23T08:52:35.397Z,26.27
2022-10-23T08:55:21.830Z,26.61
2022-10-23T08:57:58.823Z,26.66
2022-10-23T09:00:25.566Z,26.92
2022-10-23T09:02:54.610Z,26.74
2022-10-23T09:05:35.241Z,27.18
2022-10-23T09:08:12.785Z,27.37
2022-10-23T09:10:58.662Z,27.20
2022-10-23T09:13:58.870Z,26.95
2022-10-23T09:16:38.136Z,27.81
2022-10-23T09:19:19.441Z,27.87
2022-10-23T09:21:49.899Z,26.86
2022-10-23T09:24:19.623Z,26.95
2022-10-23T09:26:50.426Z,27.59
2022-10-23T09:29:28.200Z,27.58
2022-10-23T09:32:00.234Z,27.31
2022-10-23T09:34:30.090Z,27.10
2022-10-23T09:37:00.497Z,27.46
2022-10-23T09:39:30.935Z,27.02
2022-10-23T09:41:58.826Z,27.27
2022-10-23T09:44:30.696Z,27.02
2022-10-23T09:47:06.419Z,26.62
2022-10-23T09:49:34.571Z,26.42
2022-10-23T09:52:04.104Z,26.59
2022-10-23T09:54:33.918Z,27.03
2022-10-23T09:57:16.878Z,27.11
2022-10-23T09:59:44.174Z,26.96
2022-10-23T10:02:41.723Z,27.37
2022-10-23T10:05:27.093Z,26.65
2022-10-23T10:07:59.982Z,26.47
2022-10-23T10:10:34.880Z,26.82
2022-10-23T10:13:15.201Z,27.33
2022-10-23T10:15:52.744Z,26.67
2022-10-23T10:18:37.054Z,27.16
2022-10-23T10:21:06.743Z,26.82
2022-10-23T10:24:02.467Z,26.76
2022-10-23T10:26:35.157Z,26.98
2022-10-23T10:29:38.523Z,27.44
2022-10-23T10:32:34.683Z,28.09
2022-10-23T10:35:30.708Z,28.12
2022-10-23T10:38:29.062Z,27.40
2022-10-23T10:41:26.778Z,27.31
2022-10-23T10:44:11.868Z,26.73
2022-10-23T10:47:15.929Z,27.21
2022-10-23T10:49:52.240Z,26.76
2022-10-23T10:52:21.624Z,26.92
2022-10-23T10:54:59.846Z,27.14
2022-10-23T10:57:38.377Z,27.08
2022-10-23T11:00:14.725Z,27.20
2022-10-23T11:02:53.620Z,27.37
2022-10-23T11:05:37.350Z,26.94
2022-10-23T11:08:09.929Z,26.99
2022-10-23T11:10:41.208Z,27.52
2022-10-23T11:13:25.034Z,26.82
2022-10-23T11:15:55.321Z,26.73
2022-10-23T11:18:31.137Z,26.97
2022-10-23T11:21:26.059Z,27.41
2022-10-23T11:24:05.947Z,27.01
2022-10-23T11:26:58.470Z,27.74
2022-10-23T11:29:43.906Z,27.66
2022-10-23T11:35:06.515Z,28.77
2022-10-23T11:37:33.834Z,27.79
2022-10-23T11:40:06.558Z,27.28
2022-10-23T11:42:40.987Z,27.62
2022-10-23T11:45:27.798Z,28.24
2022-10-23T11:47:59.993Z,27.61
2022-10-23T11:50:30.286Z,28.09
2022-10-23T11:53:14.797Z,27.85
2022-10-23T11:56:23.359Z,27.62
2022-10-23T11:58:55.832Z,27.51
2022-10-23T12:01:41.578Z,26.68
2022-10-23T12:04:16.825Z,27.30
2022-10-23T12:07:14.905Z,27.46
2022-10-23T12:09:44.221Z,28.24
2022-10-23T12:12:10.827Z,28.84
2022-10-23T12:14:41.712Z,28.69
2022-10-23T12:17:23.418Z,28.20
2022-10-23T12:19:55.482Z,27.80
2022-10-23T12:22:27.883Z,27.56
2022-10-23T12:25:27.662Z,27.57
2022-10-23T12:28:04.598Z,28.40
2022-10-23T12:31:00.039Z,28.29
2022-10-23T12:33:40.470Z,28.47
2022-10-23T12:36:19.239Z,27.46
2022-10-23T12:38:47.801Z,27.57
2022-10-23T12:41:22.893Z,28.40
2022-10-23T12:44:02.598Z,27.41
2022-10-23T12:46:33.180Z,26.79
2022-10-23T12:49:02.425Z,27.42
2022-10-23T12:51:35.168Z,27.55
2022-10-23T12:54:03.380Z,27.00
2022-10-23T12:56:37.402Z,27.27
2022-10-23T12:59:05.493Z,27.41
2022-10-23T13:01:34.636Z,27.02
2022-10-23T13:04:35.414Z,26.40
2022-10-23T13:07:03.653Z,26.63
2022-10-23T13:09:36.402Z,26.16
2022-10-23T13:12:06.113Z,26.06
2022-10-23T13:14:42.142Z,25.27
2022-10-23T13:17:12.643Z,24.97
2022-10-23T13:19:39.416Z,24.84
2022-10-23T13:22:20.250Z,24.37
2022-10-23T13:24:47.634Z,24.19
2022-10-23T13:27:35.102Z,24.06
2022-10-23T13:30:05.032Z,24.02
2022-10-23T13:32:36.434Z,23.97
2022-10-23T13:35:20.405Z,24.15
2022-10-23T13:37:49.069Z,24.12
2022-10-23T13:40:30.826Z,23.99
2022-10-23T13:42:57.674Z,24.02
2022-10-23T13:45:26.820Z,23.89
2022-10-23T13:47:54.874Z,23.65
2022-10-23T13:50:21.693Z,23.69
2022-10-23T13:52:49.163Z,23.75
2022-10-23T13:55:26.584Z,23.66
2022-10-23T13:57:53.623Z,23.65
2022-10-23T14:00:20.443Z,23.55
2022-10-23T14:02:47.256Z,23.41
2022-10-23T14:05:14.012Z,23.39
2022-10-23T14:07:42.130Z,23.47
2022-10-23T14:10:09.659Z,23.46
2022-10-23T14:12:44.235Z,23.41
2022-10-23T14:15:11.861Z,23.34
2022-10-23T14:17:39.336Z,23.56
2022-10-23T14:20:07.322Z,23.45
2022-10-23T14:22:34.200Z,23.55
2022-10-23T14:25:01.346Z,23.24
2022-10-23T14:27:30.093Z,23.20
2022-10-23T14:29:57.116Z,23.22
2022-10-23T14:32:23.850Z,23.35
2022-10-23T14:34:53.697Z,23.16
2022-10-23T14:37:21.652Z,22.96
2022-10-23T14:39:50.325Z,23.02
2022-10-23T14:42:19.347Z,22.72
2022-10-23T14:44:46.233Z,22.60
2022-10-23T14:47:12.930Z,22.47
2022-10-23T14:49:40.539Z,22.46
2022-10-23T14:52:07.901Z,22.24
2022-10-23T14:54:37.170Z,22.32
2022-10-23T14:57:04.409Z,22.16
2022-10-23T14:59:31.460Z,22.08
2022-10-23T15:01:58.181Z,21.96
2022-10-23T15:04:25.322Z,21.77
2022-10-23T15:06:52.595Z,21.78
2022-10-23T15:09:20.353Z,21.73
2022-10-23T15:11:48.160Z,21.53
2022-10-23T15:14:15.038Z,21.54
2022-10-23T15:16:42.290Z,21.48
2022-10-23T15:19:17.385Z,21.39
2022-10-23T15:21:47.215Z,21.17
2022-10-23T15:24:15.305Z,21.07
2022-10-23T15:26:43.868Z,20.83
2022-10-23T15:29:11.904Z,20.95
2022-10-23T15:31:38.713Z,20.83
2022-10-23T15:34:06.466Z,20.74
2022-10-23T15:36:34.263Z,20.59
2022-10-23T15:39:01.061Z,20.52
2022-10-23T15:41:30.539Z,20.48
2022-10-23T15:43:59.395Z,20.22
2022-10-23T15:46:26.749Z,20.40
2022-10-23T15:48:53.769Z,20.35
2022-10-23T15:51:20.694Z,20.21
2022-10-23T15:53:47.895Z,20.22
2022-10-23T15:56:17.743Z,19.94
2022-10-23T15:58:44.453Z,19.94
2022-10-23T16:01:11.325Z,19.95
2022-10-23T16:03:39.195Z,20.08
2022-10-23T16:06:12.393Z,20.08
2022-10-23T16:08:39.616Z,20.19
2022-10-23T16:11:15.316Z,20.33
2022-10-23T16:13:43.879Z,20.31
2022-10-23T16:16:10.693Z,20.35
2022-10-23T16:18:37.989Z,20.45
2022-10-23T16:21:05.139Z,20.41
2022-10-23T16:23:33.330Z,20.38
2022-10-23T16:26:06.505Z,20.38
2022-10-23T16:28:33.234Z,20.12
2022-10-23T16:31:00.898Z,20.20
2022-10-23T16:33:27.771Z,20.11
2022-10-23T16:35:54.485Z,20.08
2022-10-23T16:38:21.276Z,19.15
2022-10-23T16:40:54.247Z,20.06
2022-10-23T16:43:21.047Z,20.20
2022-10-23T16:45:47.851Z,20.11
2022-10-23T16:48:14.590Z,19.95
2022-10-23T16:50:41.739Z,19.99
2022-10-23T16:53:08.545Z,19.94
2022-10-23T16:55:35.314Z,20.11
2022-10-23T16:58:02.087Z,20.08
2022-10-23T17:00:34.923Z,19.93
2022-10-23T17:03:03.530Z,19.75
2022-10-23T17:05:34.851Z,19.66
2022-10-23T17:08:01.960Z,19.52
2022-10-23T17:10:28.673Z,19.30
2022-10-23T17:12:55.512Z,19.31
2022-10-23T17:15:23.953Z,19.34
2022-10-23T17:17:50.895Z,19.34
2022-10-23T17:20:17.989Z,19.35
2022-10-23T17:22:44.721Z,19.44
2022-10-23T17:25:11.759Z,19.52
2022-10-23T17:27:38.822Z,19.73
2022-10-23T17:30:10.430Z,19.68
2022-10-23T17:32:39.204Z,19.61
2022-10-23T17:35:06.901Z,19.52
2022-10-23T17:37:33.586Z,19.40
2022-10-23T17:40:02.703Z,19.47
2022-10-23T17:42:29.677Z,19.44
2022-10-23T17:44:56.482Z,19.51
2022-10-23T17:47:23.265Z,19.65
2022-10-23T17:49:50.105Z,19.55
2022-10-23T17:52:16.951Z,19.61
2022-10-23T17:54:43.809Z,19.58
2022-10-23T17:57:10.657Z,19.66
2022-10-23T17:59:39.289Z,19.77
2022-10-23T18:02:07.203Z,19.88
2022-10-23T18:04:34.778Z,19.93
2022-10-23T18:07:01.481Z,20.01
2022-10-23T18:09:28.276Z,20.10
2022-10-23T18:11:55.098Z,20.13
2022-10-23T18:14:23.553Z,20.16
2022-10-23T18:16:52.631Z,20.19
2022-10-23T18:19:19.750Z,20.20
2022-10-23T18:21:47.811Z,20.19
2022-10-23T18:24:14.981Z,20.14
2022-10-23T18:26:42.508Z,20.17
2022-10-23T18:29:11.370Z,20.09
2022-10-23T18:31:38.982Z,19.90
2022-10-23T18:34:23.213Z,19.92
2022-10-23T18:36:51.554Z,19.95
2022-10-23T18:39:22.464Z,19.93
2022-10-23T18:41:52.509Z,19.81
2022-10-23T18:44:21.804Z,19.73
2022-10-23T18:46:49.296Z,19.77
2022-10-23T18:49:18.079Z,19.80
2022-10-23T18:51:44.925Z,19.75
2022-10-23T18:54:14.367Z,19.39
2022-10-23T18:56:41.601Z,19.32
2022-10-23T18:59:12.483Z,18.98
2022-10-23T19:01:39.281Z,18.89
2022-10-23T19:04:06.903Z,18.39
2022-10-23T19:06:36.136Z,17.96
2022-10-23T19:09:06.794Z,18.16
2022-10-23T19:11:33.559Z,18.26
2022-10-23T19:14:00.247Z,17.92
2022-10-23T19:16:26.909Z,18.00
2022-10-23T19:19:07.311Z,17.97
2022-10-23T19:21:38.417Z,18.11
2022-10-23T19:24:09.096Z,17.85
2022-10-23T19:26:37.960Z,17.75
2022-10-23T19:29:07.137Z,17.75
2022-10-23T19:31:34.106Z,17.97
2022-10-23T19:34:00.818Z,17.83
2022-10-23T19:36:27.513Z,17.88
2022-10-23T19:38:54.281Z,17.97
2022-10-23T19:41:20.943Z,18.06
2022-10-23T19:43:47.593Z,17.86
2022-10-23T19:46:14.331Z,17.91
2022-10-23T19:48:45.046Z,17.57
2022-10-23T19:51:13.556Z,17.54
2022-10-23T19:53:42.048Z,17.46
2022-10-23T19:56:11.206Z,17.58
2022-10-23T19:58:38.993Z,17.55
2022-10-23T20:01:17.627Z,17.54
2022-10-23T20:03:50.770Z,17.59
2022-10-23T20:06:20.773Z,17.44
2022-10-23T20:08:48.180Z,17.36
2022-10-23T20:11:20.305Z,17.39
2022-10-23T20:13:48.353Z,17.40
2022-10-23T20:16:21.665Z,17.34
2022-10-23T20:18:48.660Z,17.33
2022-10-23T20:21:15.867Z,17.31
2022-10-23T20:23:42.874Z,17.23
2022-10-23T20:26:12.641Z,17.01
2022-10-23T20:28:39.640Z,16.97
2022-10-23T20:31:09.157Z,16.84
2022-10-23T20:33:37.408Z,16.82
2022-10-23T20:36:07.279Z,16.72
2022-10-23T20:38:35.632Z,16.30
2022-10-23T20:41:07.107Z,16.75
2022-10-23T20:43:34.314Z,16.65
2022-10-23T20:46:09.466Z,16.71
2022-10-23T20:48:37.274Z,16.57
2022-10-23T20:51:06.332Z,16.68
2022-10-23T20:53:34.672Z,16.65
2022-10-23T20:56:08.679Z,16.73
2022-10-23T20:58:35.698Z,16.73
2022-10-23T21:01:04.916Z,16.87
2022-10-23T21:03:31.870Z,17.08
2022-10-23T21:06:10.586Z,17.19
2022-10-23T21:08:38.666Z,16.86
2022-10-23T21:11:05.503Z,16.50
2022-10-23T21:13:32.489Z,16.21
2022-10-23T21:15:59.296Z,16.05
2022-10-23T21:18:44.998Z,16.05
2022-10-23T21:21:13.324Z,15.91
2022-10-23T21:23:40.308Z,15.84
2022-10-23T21:26:07.835Z,15.69
2022-10-23T21:28:35.273Z,15.89
2022-10-23T21:31:12.998Z,15.78
2022-10-23T21:33:41.225Z,15.32
2022-10-23T21:36:13.862Z,15.57
2022-10-23T21:38:40.772Z,15.44
2022-10-23T21:41:09.593Z,15.37
2022-10-23T21:43:36.363Z,15.33
2022-10-23T21:46:23.061Z,14.87
2022-10-23T21:48:50.421Z,14.73
2022-10-23T21:51:29.351Z,14.63
2022-10-23T21:53:57.169Z,14.74
2022-10-23T21:56:34.318Z,14.65
2022-10-23T21:59:02.408Z,14.51
2022-10-23T22:01:30.083Z,14.63
2022-10-23T22:03:57.039Z,14.83
2022-10-23T22:06:26.500Z,15.04
2022-10-23T22:08:55.010Z,15.16
2022-10-23T22:11:21.940Z,14.91
2022-10-23T22:13:49.163Z,14.79
2022-10-23T22:16:16.714Z,14.69
2022-10-23T22:18:44.191Z,14.87
2022-10-23T22:21:14.221Z,14.97
2022-10-23T22:23:41.063Z,14.74
2022-10-23T22:26:19.812Z,14.61
2022-10-23T22:28:46.709Z,14.33
2022-10-23T22:31:18.682Z,14.03
2022-10-23T22:33:45.671Z,13.85
2022-10-23T22:36:12.757Z,13.65
2022-10-23T22:38:41.204Z,13.53
2022-10-23T22:41:08.995Z,13.04
2022-10-23T22:43:35.922Z,13.14
2022-10-23T22:46:11.643Z,13.15
2022-10-23T22:48:39.194Z,13.15
2022-10-23T22:51:08.999Z,13.14
2022-10-23T22:53:36.103Z,13.10
2022-10-23T22:56:07.479Z,12.93
2022-10-23T22:58:35.105Z,12.82
2022-10-23T23:01:13.654Z,12.64
2022-10-23T23:03:40.809Z,12.91
2022-10-23T23:06:08.436Z,12.94
2022-10-23T23:08:36.764Z,13.01
2022-10-23T23:11:04.780Z,12.93
2022-10-23T23:13:31.724Z,12.99
2022-10-23T23:15:58.969Z,12.80
2022-10-23T23:18:25.816Z,12.90
2022-10-23T23:20:52.496Z,13.00
2022-10-23T23:23:19.596Z,13.05
2022-10-23T23:25:49.365Z,13.36
2022-10-23T23:28:18.827Z,13.26
2022-10-23T23:33:13.844Z,13.61
2022-10-23T23:35:44.670Z,13.59
2022-10-23T23:38:12.266Z,13.09
2022-10-23T23:40:39.357Z,13.07
2022-10-23T23:43:06.871Z,13.18
2022-10-23T23:45:33.733Z,12.81
2022-10-23T23:48:00.520Z,12.66
2022-10-23T23:50:28.194Z,12.55
2022-10-23T23:52:55.064Z,12.32
2022-10-23T23:55:21.940Z,12.62
2022-10-23T23:57:48.864Z,12.82
